createdAt,value
2023-02-06T00:01:08.449Z,1.52
2023-02-06T00:03:10.348Z,1.62
2023-02-06T00:05:11.834Z,1.68
2023-02-06T00:07:13.221Z,1.70
2023-02-06T00:09:14.709Z,1.77
2023-02-06T00:11:16.953Z,1.77
2023-02-06T00:13:18.414Z,1.79
2023-02-06T00:15:19.973Z,1.80
2023-02-06T00:17:21.368Z,1.78
2023-02-06T00:19:22.787Z,1.79
2023-02-06T00:21:26.011Z,1.86
2023-02-06T00:23:27.393Z,1.83
2023-02-06T00:25:28.761Z,1.87
2023-02-06T00:27:30.118Z,1.90
2023-02-06T00:29:31.545Z,1.86
2023-02-06T00:31:32.994Z,1.82
2023-02-06T00:33:34.888Z,1.80
2023-02-06T00:35:36.617Z,1.77
2023-02-06T00:37:38.083Z,1.76
2023-02-06T00:39:39.480Z,1.71
2023-02-06T00:41:40.827Z,1.74
2023-02-06T00:43:43.358Z,1.70
2023-02-06T00:45:44.820Z,1.67
2023-02-06T00:47:46.203Z,1.69
2023-02-06T00:49:47.607Z,1.68
2023-02-06T00:51:49.056Z,1.66
2023-02-06T00:53:51.293Z,1.63
2023-02-06T00:55:52.729Z,1.56
2023-02-06T00:57:54.139Z,1.55
2023-02-06T00:59:55.517Z,1.52
2023-02-06T01:01:56.968Z,1.46
2023-02-06T01:03:58.543Z,1.42
2023-02-06T01:06:00.002Z,1.36
2023-02-06T01:08:04.031Z,1.35
2023-02-06T01:10:07.886Z,1.34
2023-02-06T01:12:09.276Z,1.24
2023-02-06T01:14:10.723Z,1.24
2023-02-06T01:16:14.705Z,1.27
2023-02-06T01:18:16.107Z,1.26
2023-02-06T01:20:17.576Z,1.18
2023-02-06T01:22:19.037Z,1.19
2023-02-06T01:24:20.379Z,1.17
2023-02-06T01:26:24.546Z,1.07
2023-02-06T01:28:27.064Z,1.12
2023-02-06T01:30:28.463Z,1.12
2023-02-06T01:32:29.809Z,1.08
2023-02-06T01:34:31.210Z,1.02
2023-02-06T01:36:32.590Z,1.00
2023-02-06T01:38:33.984Z,0.93
2023-02-06T01:40:35.404Z,0.88
2023-02-06T01:42:37.856Z,0.92
2023-02-06T01:44:39.662Z,0.89
2023-02-06T01:46:43.832Z,0.88
2023-02-06T01:48:54.133Z,0.87
2023-02-06T01:50:58.722Z,0.85
2023-02-06T01:53:01.735Z,0.80
2023-02-06T01:55:05.056Z,0.80
2023-02-06T01:57:10.563Z,0.80
2023-02-06T01:59:12.530Z,0.77
2023-02-06T02:01:15.365Z,0.75
2023-02-06T02:03:16.904Z,0.74
2023-02-06T02:05:19.580Z,0.75
2023-02-06T02:07:25.118Z,0.74
2023-02-06T02:09:27.024Z,0.69
2023-02-06T02:11:32.975Z,0.67
2023-02-06T02:13:36.504Z,0.66
2023-02-06T02:16:13.527Z,0.70
2023-02-06T02:18:26.237Z,0.66
2023-02-06T02:21:11.154Z,0.58
2023-02-06T02:23:27.843Z,0.58
2023-02-06T02:26:09.009Z,0.64
2023-02-06T02:28:42.704Z,0.53
2023-02-06T02:30:54.335Z,0.46
2023-02-06T02:33:17.474Z,0.41
2023-02-06T02:35:31.937Z,0.39
2023-02-06T02:37:55.308Z,0.33
2023-02-06T02:40:08.608Z,0.25
2023-02-06T02:42:13.111Z,0.28
2023-02-06T02:44:29.685Z,0.23
2023-02-06T02:46:37.187Z,0.21
2023-02-06T02:48:42.883Z,0.22
2023-02-06T02:50:44.785Z,0.20
2023-02-06T02:52:46.426Z,0.20
2023-02-06T02:54:47.813Z,0.15
2023-02-06T02:56:49.268Z,0.19
2023-02-06T02:59:04.719Z,0.22
2023-02-06T03:01:11.417Z,0.21
2023-02-06T03:03:15.629Z,0.27
2023-02-06T03:05:21.941Z,0.34
2023-02-06T03:07:35.017Z,0.38
2023-02-06T03:09:54.628Z,0.30
2023-02-06T03:12:12.755Z,0.32
2023-02-06T03:14:34.422Z,0.28
2023-02-06T03:16:45.764Z,0.30
2023-02-06T03:19:01.792Z,0.24
2023-02-06T03:21:06.447Z,0.26
2023-02-06T03:23:12.131Z,0.28
2023-02-06T03:25:20.147Z,0.40
2023-02-06T03:27:22.904Z,0.43
2023-02-06T03:29:25.864Z,0.40
2023-02-06T03:31:39.871Z,0.36
2023-02-06T03:33:52.890Z,0.38
2023-02-06T03:35:56.846Z,0.35
2023-02-06T03:37:58.347Z,0.35
2023-02-06T03:40:01.693Z,0.34
2023-02-06T03:42:05.079Z,0.31
2023-02-06T03:44:10.310Z,0.31
2023-02-06T03:46:14.483Z,0.36
2023-02-06T03:48:23.670Z,0.38
2023-02-06T03:50:26.813Z,0.40
2023-02-06T03:52:35.942Z,0.43
2023-02-06T03:54:42.807Z,0.44
2023-02-06T03:56:48.515Z,0.43
2023-02-06T03:58:49.977Z,0.44
2023-02-06T04:00:52.437Z,0.46
2023-02-06T04:02:56.647Z,0.49
2023-02-06T04:04:58.034Z,0.48
2023-02-06T04:07:12.716Z,0.51
2023-02-06T04:09:14.128Z,0.51
2023-02-06T04:11:15.668Z,0.54
2023-02-06T04:13:17.056Z,0.58
2023-02-06T04:15:18.608Z,0.60
2023-02-06T04:17:38.545Z,0.63
2023-02-06T04:19:42.135Z,0.68
2023-02-06T04:21:43.710Z,0.70
2023-02-06T04:23:45.164Z,0.74
2023-02-06T04:25:47.232Z,0.77
2023-02-06T04:27:49.768Z,0.77
2023-02-06T04:29:51.248Z,0.82
2023-02-06T04:31:52.631Z,0.85
2023-02-06T04:33:54.008Z,0.88
2023-02-06T04:35:55.415Z,0.91
2023-02-06T04:37:56.817Z,0.92
2023-02-06T04:39:58.193Z,0.94
2023-02-06T04:41:59.802Z,0.99
2023-02-06T04:44:01.266Z,0.99
2023-02-06T04:46:02.749Z,1.04
2023-02-06T04:48:04.254Z,1.07
2023-02-06T04:50:06.166Z,1.09
2023-02-06T04:52:07.546Z,1.12
2023-02-06T04:54:12.615Z,1.13
2023-02-06T04:56:13.981Z,1.16
2023-02-06T04:58:15.379Z,1.20
2023-02-06T05:00:17.130Z,1.24
2023-02-06T05:02:18.566Z,1.27
2023-02-06T05:04:20.042Z,1.25
2023-02-06T05:06:21.437Z,1.28
2023-02-06T05:08:22.820Z,1.27
2023-02-06T05:10:24.283Z,1.32
2023-02-06T05:12:25.739Z,1.34
2023-02-06T05:14:27.187Z,1.38
2023-02-06T05:16:28.725Z,1.38
2023-02-06T05:18:30.107Z,1.41
2023-02-06T05:20:31.602Z,1.43
2023-02-06T05:22:32.992Z,1.43
2023-02-06T05:24:34.404Z,1.47
2023-02-06T05:26:35.760Z,1.45
2023-02-06T05:28:37.118Z,1.46
2023-02-06T05:30:38.658Z,1.36
2023-02-06T05:32:40.696Z,1.39
2023-02-06T05:34:42.039Z,1.46
2023-02-06T05:36:43.425Z,1.49
2023-02-06T05:38:44.904Z,1.51
2023-02-06T05:40:49.912Z,1.56
2023-02-06T05:42:51.381Z,1.55
2023-02-06T05:44:52.811Z,1.53
2023-02-06T05:46:54.401Z,1.55
2023-02-06T05:48:55.771Z,1.56
2023-02-06T05:50:58.187Z,1.57
2023-02-06T05:52:59.555Z,1.58
2023-02-06T05:55:00.952Z,1.60
2023-02-06T05:57:02.709Z,1.62
2023-02-06T05:59:04.156Z,1.61
2023-02-06T06:01:05.572Z,1.55
2023-02-06T06:03:06.933Z,1.50
2023-02-06T06:05:08.582Z,1.55
2023-02-06T06:07:09.991Z,1.59
2023-02-06T06:09:11.809Z,1.62
2023-02-06T06:11:13.316Z,1.65
2023-02-06T06:13:14.695Z,1.66
2023-02-06T06:15:16.399Z,1.67
2023-02-06T06:17:17.804Z,1.70
2023-02-06T06:19:19.435Z,1.70
2023-02-06T06:21:20.815Z,1.71
2023-02-06T06:23:22.308Z,1.66
2023-02-06T06:25:23.790Z,1.67
2023-02-06T06:27:25.284Z,1.66
2023-02-06T06:29:26.940Z,1.68
2023-02-06T06:31:28.424Z,1.64
2023-02-06T06:33:29.842Z,1.60
2023-02-06T06:35:31.438Z,1.59
2023-02-06T06:37:32.809Z,1.64
2023-02-06T06:39:34.260Z,1.53
2023-02-06T06:41:35.693Z,1.52
2023-02-06T06:43:37.380Z,1.58
2023-02-06T06:45:39.244Z,1.61
2023-02-06T06:47:40.901Z,1.64
2023-02-06T06:49:42.279Z,1.64
2023-02-06T06:51:43.707Z,1.60
2023-02-06T06:53:45.106Z,1.56
2023-02-06T06:55:46.473Z,1.62
2023-02-06T06:57:47.881Z,1.65
2023-02-06T06:59:49.968Z,1.68
2023-02-06T07:01:52.452Z,1.65
2023-02-06T07:03:53.853Z,1.64
2023-02-06T07:05:55.305Z,1.68
2023-02-06T07:07:56.852Z,1.68
2023-02-06T07:09:59.634Z,1.69
2023-02-06T07:12:01.173Z,1.72
2023-02-06T07:14:03.614Z,1.74
2023-02-06T07:16:05.399Z,1.71
2023-02-06T07:18:07.060Z,1.54
2023-02-06T07:20:09.177Z,1.61
2023-02-06T07:22:10.558Z,1.65
2023-02-06T07:24:11.983Z,1.51
2023-02-06T07:26:13.447Z,1.54
2023-02-06T07:28:14.834Z,1.66
2023-02-06T07:30:16.406Z,1.68
2023-02-06T07:32:17.767Z,1.74
2023-02-06T07:34:19.142Z,1.76
2023-02-06T07:36:20.534Z,1.74
2023-02-06T07:38:22.192Z,1.80
2023-02-06T07:40:25.113Z,1.83
2023-02-06T07:42:26.576Z,1.88
2023-02-06T07:44:28.026Z,1.97
2023-02-06T07:46:29.412Z,2.04
2023-02-06T07:48:30.913Z,2.07
2023-02-06T07:50:32.593Z,2.06
2023-02-06T07:52:34.046Z,2.11
2023-02-06T07:54:35.496Z,2.16
2023-02-06T07:56:37.166Z,2.23
2023-02-06T07:58:38.562Z,2.28
2023-02-06T08:00:40.850Z,2.30
2023-02-06T08:02:42.440Z,2.37
2023-02-06T08:04:44.025Z,2.38
2023-02-06T08:06:45.647Z,2.41
2023-02-06T08:08:47.647Z,2.42
2023-02-06T08:10:49.491Z,2.42
2023-02-06T08:12:51.157Z,2.47
2023-02-06T08:14:52.579Z,2.51
2023-02-06T08:16:54.374Z,2.46
2023-02-06T08:18:55.795Z,2.50
2023-02-06T08:21:02.341Z,2.58
2023-02-06T08:23:04.153Z,2.66
2023-02-06T08:25:06.317Z,2.65
2023-02-06T08:27:07.790Z,2.66
2023-02-06T08:29:09.965Z,2.71
2023-02-06T08:31:14.230Z,2.71
2023-02-06T08:33:15.670Z,2.63
2023-02-06T08:35:17.296Z,2.64
2023-02-06T08:37:18.800Z,2.62
2023-02-06T08:39:20.254Z,2.69
2023-02-06T08:41:29.760Z,2.75
2023-02-06T08:43:33.031Z,2.79
2023-02-06T08:45:34.964Z,2.74
2023-02-06T08:47:36.430Z,2.71
2023-02-06T08:49:38.214Z,2.74
2023-02-06T08:51:40.300Z,2.79
2023-02-06T08:53:41.658Z,2.75
2023-02-06T08:55:43.150Z,2.77
2023-02-06T08:57:44.531Z,2.78
2023-02-06T08:59:45.945Z,2.79
2023-02-06T09:01:49.209Z,2.82
2023-02-06T09:03:55.158Z,2.82
2023-02-06T09:06:09.510Z,2.79
2023-02-06T09:08:11.612Z,2.75
2023-02-06T09:10:30.343Z,2.72
2023-02-06T09:12:31.734Z,2.82
2023-02-06T09:14:35.312Z,2.86
2023-02-06T09:16:37.866Z,2.73
2023-02-06T09:18:39.628Z,2.72
2023-02-06T09:20:41.006Z,2.72
2023-02-06T09:22:44.470Z,2.74
2023-02-06T09:24:45.954Z,2.87
2023-02-06T09:26:59.378Z,2.91
2023-02-06T09:29:05.482Z,3.00
2023-02-06T09:31:08.480Z,3.05
2023-02-06T09:33:09.920Z,3.05
2023-02-06T09:35:11.292Z,3.08
2023-02-06T09:37:12.672Z,3.11
2023-02-06T09:39:14.114Z,3.02
2023-02-06T09:41:23.987Z,3.15
2023-02-06T09:43:25.814Z,3.12
2023-02-06T09:45:29.505Z,3.25
2023-02-06T09:47:35.139Z,3.32
2023-02-06T09:49:52.728Z,3.35
2023-02-06T09:51:57.069Z,3.45
2023-02-06T09:54:09.009Z,3.52
2023-02-06T09:56:42.865Z,3.42
2023-02-06T09:59:07.876Z,3.51
2023-02-06T10:01:25.434Z,3.47
2023-02-06T10:03:53.796Z,3.61
2023-02-06T10:06:14.630Z,3.70
2023-02-06T10:08:25.357Z,3.71
2023-02-06T10:10:36.334Z,3.86
2023-02-06T10:12:44.691Z,3.95
2023-02-06T10:14:52.790Z,3.95
2023-02-06T10:16:59.988Z,3.80
2023-02-06T10:19:05.385Z,3.79
2023-02-06T10:21:26.707Z,3.76
2023-02-06T10:23:47.672Z,3.51
2023-02-06T10:26:04.267Z,3.54
2023-02-06T10:28:25.991Z,3.46
2023-02-06T10:30:58.374Z,3.59
2023-02-06T10:32:59.654Z,3.59
2023-02-06T10:35:18.984Z,3.70
2023-02-06T10:37:35.669Z,3.80
2023-02-06T10:40:26.042Z,3.87
2023-02-06T10:42:45.486Z,3.79
2023-02-06T10:45:13.186Z,3.74
2023-02-06T10:47:30.408Z,3.80
2023-02-06T10:49:35.649Z,3.79
2023-02-06T10:51:43.143Z,3.93
2023-02-06T10:53:57.779Z,4.37
2023-02-06T10:56:06.969Z,4.71
2023-02-06T10:58:18.760Z,4.92
2023-02-06T11:00:24.864Z,4.88
2023-02-06T11:02:44.297Z,4.87
2023-02-06T11:05:07.948Z,4.97
2023-02-06T11:07:17.797Z,4.95
2023-02-06T11:09:19.205Z,4.95
2023-02-06T11:11:22.747Z,5.09
2023-02-06T11:13:34.934Z,5.09
2023-02-06T11:15:54.585Z,5.14
2023-02-06T11:17:56.507Z,5.15
2023-02-06T11:20:21.664Z,5.04
2023-02-06T11:22:33.338Z,4.86
2023-02-06T11:24:39.634Z,5.20
2023-02-06T11:26:50.019Z,5.22
2023-02-06T11:28:59.524Z,5.26
2023-02-06T11:31:09.787Z,5.26
2023-02-06T11:33:26.413Z,5.33
2023-02-06T11:35:33.284Z,5.49
2023-02-06T11:37:38.347Z,5.50
2023-02-06T11:39:39.936Z,5.58
2023-02-06T11:41:47.282Z,5.50
2023-02-06T11:43:50.887Z,5.46
2023-02-06T11:46:08.231Z,4.95
2023-02-06T11:48:39.215Z,4.89
2023-02-06T11:50:41.218Z,4.67
2023-02-06T11:52:46.880Z,4.90
2023-02-06T11:54:54.142Z,5.13
2023-02-06T11:57:03.449Z,5.13
2023-02-06T11:59:26.979Z,5.05
2023-02-06T12:01:28.564Z,5.17
2023-02-06T12:03:32.647Z,5.16
2023-02-06T12:05:40.550Z,4.84
2023-02-06T12:07:46.010Z,4.65
2023-02-06T12:09:47.566Z,4.63
2023-02-06T12:11:56.107Z,4.89
2023-02-06T12:14:20.321Z,4.83
2023-02-06T12:16:23.305Z,4.93
2023-02-06T12:18:34.809Z,4.68
2023-02-06T12:20:46.879Z,4.67
2023-02-06T12:22:54.108Z,4.71
2023-02-06T12:24:56.879Z,4.40
2023-02-06T12:27:02.460Z,4.62
2023-02-06T12:29:41.878Z,4.83
2023-02-06T12:32:04.479Z,4.91
2023-02-06T12:34:50.456Z,4.84
2023-02-06T12:37:10.705Z,4.65
2023-02-06T12:39:20.023Z,4.54
2023-02-06T12:41:40.786Z,4.62
2023-02-06T12:43:45.310Z,4.68
2023-02-06T12:45:59.684Z,4.88
2023-02-06T12:48:23.007Z,4.87
2023-02-06T12:50:35.873Z,4.87
2023-02-06T12:52:44.292Z,4.91
2023-02-06T12:54:53.396Z,4.83
2023-02-06T12:57:00.576Z,4.88
2023-02-06T12:59:30.655Z,4.57
2023-02-06T13:01:51.956Z,4.73
2023-02-06T13:03:59.906Z,4.56
2023-02-06T13:06:24.244Z,4.71
2023-02-06T13:08:30.838Z,4.90
2023-02-06T13:10:32.391Z,4.90
2023-02-06T13:12:34.546Z,4.99
2023-02-06T13:14:37.538Z,4.85
2023-02-06T13:16:43.024Z,4.82
2023-02-06T13:18:45.454Z,4.97
2023-02-06T13:21:19.695Z,4.93
2023-02-06T13:23:24.070Z,5.27
2023-02-06T13:25:25.424Z,5.26
2023-02-06T13:27:39.777Z,5.21
2023-02-06T13:29:53.713Z,5.19
2023-02-06T13:32:10.448Z,5.29
2023-02-06T13:34:16.929Z,5.75
2023-02-06T13:36:41.290Z,5.51
2023-02-06T13:38:43.558Z,5.25
2023-02-06T13:40:44.942Z,5.15
2023-02-06T13:43:15.452Z,5.33
2023-02-06T13:45:29.116Z,5.71
2023-02-06T13:47:52.876Z,5.57
2023-02-06T13:50:29.173Z,5.29
2023-02-06T13:52:44.151Z,5.28
2023-02-06T13:55:19.380Z,5.18
2023-02-06T13:57:39.060Z,5.23
2023-02-06T13:59:46.562Z,5.15
2023-02-06T14:01:47.954Z,5.18
2023-02-06T14:03:51.168Z,5.00
2023-02-06T14:06:20.402Z,4.95
2023-02-06T14:08:30.468Z,4.96
2023-02-06T14:10:31.820Z,4.96
2023-02-06T14:12:48.420Z,4.86
2023-02-06T14:15:17.744Z,4.94
2023-02-06T14:17:37.273Z,4.87
2023-02-06T14:19:59.796Z,4.77
2023-02-06T14:22:13.788Z,4.91
2023-02-06T14:24:53.899Z,4.85
2023-02-06T14:27:16.139Z,4.75
2023-02-06T14:29:31.484Z,4.88
2023-02-06T14:32:04.525Z,4.80
2023-02-06T14:34:38.593Z,4.84
2023-02-06T14:36:55.159Z,4.59
2023-02-06T14:39:34.087Z,4.51
2023-02-06T14:41:39.422Z,4.71
2023-02-06T14:43:44.094Z,4.78
2023-02-06T14:46:05.626Z,4.87
2023-02-06T14:48:22.342Z,5.02
2023-02-06T14:50:33.090Z,4.92
2023-02-06T14:52:34.965Z,5.01
2023-02-06T14:54:41.560Z,5.05
2023-02-06T14:56:42.999Z,4.97
2023-02-06T14:58:46.363Z,4.95
2023-02-06T15:00:47.908Z,4.66
2023-02-06T15:03:16.057Z,4.82
2023-02-06T15:05:24.582Z,4.83
2023-02-06T15:07:37.193Z,4.71
2023-02-06T15:09:43.801Z,4.80
2023-02-06T15:11:52.309Z,4.70
2023-02-06T15:13:56.433Z,4.70
2023-02-06T15:15:57.852Z,4.74
2023-02-06T15:18:16.294Z,4.85
2023-02-06T15:20:20.746Z,4.76
2023-02-06T15:22:27.605Z,4.87
2023-02-06T15:24:38.069Z,4.78
2023-02-06T15:27:01.267Z,4.79
2023-02-06T15:29:05.115Z,4.77
2023-02-06T15:31:16.396Z,4.77
2023-02-06T15:33:23.479Z,4.65
2023-02-06T15:35:26.817Z,4.68
2023-02-06T15:37:35.992Z,4.69
2023-02-06T15:39:40.173Z,4.65
2023-02-06T15:41:45.554Z,4.68
2023-02-06T15:43:48.012Z,4.57
2023-02-06T15:45:51.151Z,4.61
2023-02-06T15:47:54.160Z,4.60
2023-02-06T15:49:56.958Z,4.55
2023-02-06T15:51:58.480Z,4.62
2023-02-06T15:54:22.558Z,4.64
2023-02-06T15:56:34.034Z,4.53
2023-02-06T15:58:36.837Z,4.43
2023-02-06T16:00:38.526Z,4.32
2023-02-06T16:02:40.965Z,4.23
2023-02-06T16:04:42.410Z,4.19
2023-02-06T16:06:45.518Z,4.18
2023-02-06T16:08:57.320Z,4.11
2023-02-06T16:11:04.399Z,3.97
2023-02-06T16:13:16.044Z,3.86
2023-02-06T16:15:36.860Z,3.84
2023-02-06T16:17:41.175Z,3.75
2023-02-06T16:19:53.793Z,3.66
2023-02-06T16:22:06.635Z,3.56
2023-02-06T16:24:17.609Z,3.53
2023-02-06T16:26:24.980Z,3.51
2023-02-06T16:28:27.903Z,3.47
2023-02-06T16:30:32.824Z,3.55
2023-02-06T16:32:35.372Z,3.51
2023-02-06T16:34:41.049Z,3.46
2023-02-06T16:36:42.569Z,3.48
2023-02-06T16:38:53.991Z,3.53
2023-02-06T16:41:03.307Z,3.51
2023-02-06T16:43:11.594Z,3.56
2023-02-06T16:45:23.399Z,3.54
2023-02-06T16:47:24.911Z,3.47
2023-02-06T16:49:26.305Z,3.46
2023-02-06T16:51:29.885Z,3.40
2023-02-06T16:53:31.727Z,3.37
2023-02-06T16:55:33.398Z,3.36
2023-02-06T16:57:41.758Z,3.38
2023-02-06T16:59:43.194Z,3.32
2023-02-06T17:01:44.642Z,3.23
2023-02-06T17:03:46.025Z,3.21
2023-02-06T17:05:50.031Z,3.19
2023-02-06T17:07:52.071Z,3.17
2023-02-06T17:09:56.691Z,3.13
2023-02-06T17:11:58.236Z,3.15
2023-02-06T17:13:59.820Z,3.15
2023-02-06T17:16:01.340Z,3.16
2023-02-06T17:18:02.732Z,3.15
2023-02-06T17:20:04.888Z,3.12
2023-02-06T17:22:08.205Z,3.06
2023-02-06T17:24:09.662Z,3.02
2023-02-06T17:26:18.182Z,2.94
2023-02-06T17:28:20.421Z,2.88
2023-02-06T17:30:24.130Z,2.90
2023-02-06T17:32:25.584Z,2.90
2023-02-06T17:34:29.419Z,2.83
2023-02-06T17:36:32.562Z,2.73
2023-02-06T17:38:33.997Z,2.65
2023-02-06T17:40:36.769Z,2.56
2023-02-06T17:42:38.498Z,2.52
2023-02-06T17:44:42.352Z,2.41
2023-02-06T17:46:44.903Z,2.36
2023-02-06T17:48:46.391Z,2.29
2023-02-06T17:50:47.838Z,2.31
2023-02-06T17:52:50.215Z,2.29
2023-02-06T17:54:51.740Z,2.27
2023-02-06T17:56:53.131Z,2.21
2023-02-06T17:58:54.493Z,2.19
2023-02-06T18:00:55.852Z,2.15
2023-02-06T18:02:59.218Z,2.06
2023-02-06T18:05:00.658Z,2.03
2023-02-06T18:07:02.049Z,1.98
2023-02-06T18:09:04.392Z,1.98
2023-02-06T18:11:21.370Z,1.96
2023-02-06T18:13:25.035Z,1.95
2023-02-06T18:15:26.450Z,1.87
2023-02-06T18:17:27.965Z,1.86
2023-02-06T18:19:30.217Z,1.85
2023-02-06T18:21:31.651Z,1.83
2023-02-06T18:23:33.301Z,1.77
2023-02-06T18:25:39.071Z,1.74
2023-02-06T18:27:41.687Z,1.69
2023-02-06T18:29:49.674Z,1.67
2023-02-06T18:31:51.927Z,1.64
2023-02-06T18:33:54.730Z,1.61
2023-02-06T18:35:56.663Z,1.57
2023-02-06T18:37:58.436Z,1.54
2023-02-06T18:39:59.932Z,1.52
2023-02-06T18:42:20.166Z,1.52
2023-02-06T18:44:21.571Z,1.42
2023-02-06T18:46:22.970Z,1.39
2023-02-06T18:48:24.655Z,1.35
2023-02-06T18:50:26.332Z,1.31
2023-02-06T18:52:28.819Z,1.28
2023-02-06T18:54:30.487Z,1.23
2023-02-06T18:56:32.451Z,1.20
2023-02-06T18:58:33.875Z,1.15
2023-02-06T19:00:37.734Z,1.14
2023-02-06T19:02:39.862Z,1.14
2023-02-06T19:04:41.363Z,1.11
2023-02-06T19:06:45.056Z,1.11
2023-02-06T19:08:46.889Z,1.07
2023-02-06T19:10:48.290Z,1.06
2023-02-06T19:12:49.779Z,1.01
2023-02-06T19:14:51.176Z,0.95
2023-02-06T19:16:53.115Z,0.90
2023-02-06T19:18:54.718Z,0.86
2023-02-06T19:20:56.075Z,0.82
2023-02-06T19:22:57.557Z,0.79
2023-02-06T19:24:58.916Z,0.78
2023-02-06T19:27:01.911Z,0.75
2023-02-06T19:29:04.142Z,0.73
2023-02-06T19:31:06.806Z,0.69
2023-02-06T19:33:08.427Z,0.65
2023-02-06T19:35:11.802Z,0.67
2023-02-06T19:37:13.646Z,0.64
2023-02-06T19:39:15.036Z,0.59
2023-02-06T19:41:23.815Z,0.60
2023-02-06T19:43:25.211Z,0.65
2023-02-06T19:45:26.720Z,0.69
2023-02-06T19:47:28.109Z,0.65
2023-02-06T19:49:29.911Z,0.59
2023-02-06T19:51:34.624Z,0.54
2023-02-06T19:53:36.521Z,0.51
2023-02-06T19:55:37.965Z,0.62
2023-02-06T19:57:39.754Z,0.73
2023-02-06T19:59:41.995Z,0.81
2023-02-06T20:01:48.182Z,0.86
2023-02-06T20:03:50.125Z,0.86
2023-02-06T20:05:51.545Z,0.85
2023-02-06T20:07:53.931Z,0.88
2023-02-06T20:09:55.801Z,0.84
2023-02-06T20:11:57.550Z,0.83
2023-02-06T20:13:59.103Z,0.80
2023-02-06T20:16:03.554Z,0.73
2023-02-06T20:18:05.401Z,0.70
2023-02-06T20:20:07.865Z,0.67
2023-02-06T20:22:09.482Z,0.67
2023-02-06T20:24:13.587Z,0.64
2023-02-06T20:26:16.790Z,0.60
2023-02-06T20:28:18.950Z,0.59
2023-02-06T20:30:22.010Z,0.64
2023-02-06T20:32:24.234Z,0.66
2023-02-06T20:34:26.992Z,0.66
2023-02-06T20:36:28.975Z,0.59
2023-02-06T20:38:31.088Z,0.59
2023-02-06T20:40:32.494Z,0.55
2023-02-06T20:42:34.630Z,0.55
2023-02-06T20:44:36.104Z,0.47
2023-02-06T20:46:38.327Z,0.46
2023-02-06T20:48:39.720Z,0.40
2023-02-06T20:50:41.147Z,0.37
2023-02-06T20:52:42.895Z,0.37
2023-02-06T20:54:44.375Z,0.36
2023-02-06T20:56:46.023Z,0.33
2023-02-06T20:58:50.110Z,0.31
2023-02-06T21:00:52.577Z,0.34
2023-02-06T21:02:54.022Z,0.29
2023-02-06T21:04:55.502Z,0.27
2023-02-06T21:06:56.924Z,0.26
2023-02-06T21:09:00.746Z,0.24
2023-02-06T21:11:02.529Z,0.22
2023-02-06T21:13:03.909Z,0.20
2023-02-06T21:15:05.737Z,0.17
2023-02-06T21:17:08.358Z,0.17
2023-02-06T21:19:12.104Z,0.14
2023-02-06T21:21:15.329Z,0.12
2023-02-06T21:23:17.400Z,0.10
2023-02-06T21:25:18.974Z,0.07
2023-02-06T21:27:20.379Z,0.06
2023-02-06T21:29:23.044Z,0.02
2023-02-06T21:31:35.956Z,0.00
2023-02-06T21:33:38.921Z,-0.03
2023-02-06T21:35:40.379Z,-0.02
2023-02-06T21:37:41.731Z,-0.04
2023-02-06T21:39:43.327Z,-0.07
2023-02-06T21:41:45.692Z,-0.11
2023-02-06T21:43:47.453Z,-0.13
2023-02-06T21:45:48.895Z,-0.17
2023-02-06T21:47:50.316Z,-0.20
2023-02-06T21:49:51.720Z,-0.22
2023-02-06T21:51:53.352Z,-0.26
2023-02-06T21:53:56.325Z,-0.28
2023-02-06T21:55:59.044Z,-0.30
2023-02-06T21:58:01.190Z,-0.34
2023-02-06T22:00:02.873Z,-0.35
2023-02-06T22:02:04.852Z,-0.41
2023-02-06T22:04:07.833Z,-0.43
2023-02-06T22:06:11.502Z,-0.47
2023-02-06T22:08:12.936Z,-0.51
2023-02-06T22:10:14.572Z,-0.52
2023-02-06T22:12:15.997Z,-0.57
2023-02-06T22:14:18.405Z,-0.60
2023-02-06T22:16:22.008Z,-0.62
2023-02-06T22:18:23.465Z,-0.63
2023-02-06T22:20:25.108Z,-0.61
2023-02-06T22:22:26.489Z,-0.55
2023-02-06T22:24:27.940Z,-0.50
2023-02-06T22:26:30.271Z,-0.47
2023-02-06T22:28:32.113Z,-0.44
2023-02-06T22:30:33.569Z,-0.41
2023-02-06T22:32:39.616Z,-0.40
2023-02-06T22:34:41.011Z,-0.37
2023-02-06T22:36:44.433Z,-0.30
2023-02-06T22:38:46.901Z,-0.25
2023-02-06T22:40:58.238Z,-0.22
2023-02-06T22:42:59.767Z,-0.19
2023-02-06T22:45:01.311Z,-0.21
2023-02-06T22:47:02.704Z,-0.23
2023-02-06T22:49:06.342Z,-0.23
2023-02-06T22:51:09.764Z,-0.28
2023-02-06T22:53:30.068Z,-0.31
2023-02-06T22:55:51.444Z,-0.34
2023-02-06T22:57:52.898Z,-0.41
2023-02-06T22:59:54.262Z,-0.47
2023-02-06T23:01:57.957Z,-0.54
2023-02-06T23:04:00.896Z,-0.56
2023-02-06T23:06:03.854Z,-0.61
2023-02-06T23:08:05.207Z,-0.62
2023-02-06T23:10:06.802Z,-0.68
2023-02-06T23:12:11.233Z,-0.68
2023-02-06T23:14:14.308Z,-0.71
2023-02-06T23:16:15.821Z,-0.72
2023-02-06T23:18:17.374Z,-0.77
2023-02-06T23:22:44.739Z,-0.80
2023-02-06T23:24:46.212Z,-0.83
2023-02-06T23:26:49.900Z,-0.87
2023-02-06T23:28:51.691Z,-0.86
2023-02-06T23:30:54.405Z,-0.89
2023-02-06T23:32:55.818Z,-0.94
2023-02-06T23:34:57.292Z,-0.95
2023-02-06T23:36:58.640Z,-0.95
2023-02-06T23:39:04.203Z,-1.02
2023-02-06T23:41:15.367Z,-1.05
2023-02-06T23:43:16.744Z,-1.07
2023-02-06T23:45:18.198Z,-1.07
2023-02-06T23:47:19.579Z,-1.09
2023-02-06T23:49:20.976Z,-1.07
2023-02-06T23:51:23.704Z,-1.04
2023-02-06T23:53:25.306Z,-1.09
2023-02-06T23:55:28.344Z,-1.06
2023-02-06T23:57:29.778Z,-1.10
2023-02-06T23:59:31.190Z,-1.16
